sensor_id;sensor_type;location;lat;lon;timestamp;P1;durP1;ratioP1;P2;durP2;ratioP2
26820;SDS011;37186;51.394;5.454;2023-02-24T00:02:23;3.13;;;3.03;;
26820;SDS011;37186;51.394;5.454;2023-02-24T00:05:24;3.20;;;3.10;;
26820;SDS011;37186;51.394;5.454;2023-02-24T00:08:24;3.17;;;3.07;;
26820;SDS011;37186;51.394;5.454;2023-02-24T00:11:25;3.03;;;2.93;;
26820;SDS011;37186;51.394;5.454;2023-02-24T00:14:28;3.10;;;3.00;;
26820;SDS011;37186;51.394;5.454;2023-02-24T00:17:30;2.90;;;2.80;;
26820;SDS011;37186;51.394;5.454;2023-02-24T00:20:31;3.20;;;3.10;;
26820;SDS011;37186;51.394;5.454;2023-02-24T00:23:35;3.00;;;2.90;;
26820;SDS011;37186;51.394;5.454;2023-02-24T00:26:37;3.10;;;3.00;;
26820;SDS011;37186;51.394;5.454;2023-02-24T00:29:38;3.20;;;3.10;;
26820;SDS011;37186;51.394;5.454;2023-02-24T00:32:43;2.97;;;2.87;;
26820;SDS011;37186;51.394;5.454;2023-02-24T00:35:44;2.80;;;2.70;;
26820;SDS011;37186;51.394;5.454;2023-02-24T00:38:45;3.70;;;3.60;;
26820;SDS011;37186;51.394;5.454;2023-02-24T00:41:46;2.57;;;2.57;;
26820;SDS011;37186;51.394;5.454;2023-02-24T00:44:46;2.60;;;2.60;;
26820;SDS011;37186;51.394;5.454;2023-02-24T00:47:47;2.53;;;2.53;;
26820;SDS011;37186;51.394;5.454;2023-02-24T00:50:48;2.50;;;2.50;;
26820;SDS011;37186;51.394;5.454;2023-02-24T00:53:49;2.57;;;2.57;;
26820;SDS011;37186;51.394;5.454;2023-02-24T00:56:51;2.40;;;2.40;;
26820;SDS011;37186;51.394;5.454;2023-02-24T00:59:52;2.43;;;2.43;;
26820;SDS011;37186;51.394;5.454;2023-02-24T01:02:53;2.50;;;2.50;;
26820;SDS011;37186;51.394;5.454;2023-02-24T01:05:54;2.33;;;2.33;;
26820;SDS011;37186;51.394;5.454;2023-02-24T01:08:55;2.30;;;2.30;;
26820;SDS011;37186;51.394;5.454;2023-02-24T01:11:57;2.50;;;2.50;;
26820;SDS011;37186;51.394;5.454;2023-02-24T01:15:20;2.50;;;2.50;;
26820;SDS011;37186;51.394;5.454;2023-02-24T01:18:22;2.60;;;2.60;;
26820;SDS011;37186;51.394;5.454;2023-02-24T01:21:22;2.70;;;2.70;;
26820;SDS011;37186;51.394;5.454;2023-02-24T01:24:23;2.40;;;2.40;;
26820;SDS011;37186;51.394;5.454;2023-02-24T01:27:24;2.60;;;2.60;;
26820;SDS011;37186;51.394;5.454;2023-02-24T01:30:25;2.60;;;2.60;;
26820;SDS011;37186;51.394;5.454;2023-02-24T01:33:25;2.50;;;2.50;;
26820;SDS011;37186;51.394;5.454;2023-02-24T01:36:26;2.50;;;2.50;;
26820;SDS011;37186;51.394;5.454;2023-02-24T01:39:27;2.40;;;2.40;;
26820;SDS011;37186;51.394;5.454;2023-02-24T01:42:27;2.60;;;2.60;;
26820;SDS011;37186;51.394;5.454;2023-02-24T01:45:28;2.43;;;2.43;;
26820;SDS011;37186;51.394;5.454;2023-02-24T01:48:28;2.50;;;2.50;;
26820;SDS011;37186;51.394;5.454;2023-02-24T01:51:30;2.47;;;2.47;;
26820;SDS011;37186;51.394;5.454;2023-02-24T01:54:36;2.53;;;2.53;;
26820;SDS011;37186;51.394;5.454;2023-02-24T01:57:42;2.60;;;2.60;;
26820;SDS011;37186;51.394;5.454;2023-02-24T02:00:45;2.40;;;2.40;;
26820;SDS011;37186;51.394;5.454;2023-02-24T02:03:46;2.30;;;2.30;;
26820;SDS011;37186;51.394;5.454;2023-02-24T02:06:48;2.57;;;2.57;;
26820;SDS011;37186;51.394;5.454;2023-02-24T02:09:49;2.60;;;2.60;;
26820;SDS011;37186;51.394;5.454;2023-02-24T02:12:52;2.50;;;2.50;;
26820;SDS011;37186;51.394;5.454;2023-02-24T02:16:03;2.47;;;2.47;;
26820;SDS011;37186;51.394;5.454;2023-02-24T02:26:40;2.50;;;2.50;;
26820;SDS011;37186;51.394;5.454;2023-02-24T02:33:41;2.60;;;2.60;;
26820;SDS011;37186;51.394;5.454;2023-02-24T02:40:08;2.50;;;2.50;;
26820;SDS011;37186;51.394;5.454;2023-02-24T02:49:44;2.50;;;2.50;;
26820;SDS011;37186;51.394;5.454;2023-02-24T02:53:11;2.30;;;2.30;;
26820;SDS011;37186;51.394;5.454;2023-02-24T02:56:16;2.37;;;2.37;;
26820;SDS011;37186;51.394;5.454;2023-02-24T02:59:25;2.40;;;2.40;;
26820;SDS011;37186;51.394;5.454;2023-02-24T03:02:29;2.47;;;2.47;;
26820;SDS011;37186;51.394;5.454;2023-02-24T03:05:41;2.50;;;2.50;;
26820;SDS011;37186;51.394;5.454;2023-02-24T03:08:54;2.40;;;2.40;;
26820;SDS011;37186;51.394;5.454;2023-02-24T03:12:00;2.30;;;2.30;;
26820;SDS011;37186;51.394;5.454;2023-02-24T03:15:08;2.60;;;2.60;;
26820;SDS011;37186;51.394;5.454;2023-02-24T03:18:12;2.50;;;2.50;;
26820;SDS011;37186;51.394;5.454;2023-02-24T03:21:20;2.40;;;2.40;;
26820;SDS011;37186;51.394;5.454;2023-02-24T03:24:28;2.50;;;2.50;;
26820;SDS011;37186;51.394;5.454;2023-02-24T03:37:54;2.30;;;2.30;;
26820;SDS011;37186;51.394;5.454;2023-02-24T03:40:58;2.30;;;2.30;;
26820;SDS011;37186;51.394;5.454;2023-02-24T03:43:58;2.40;;;2.40;;
26820;SDS011;37186;51.394;5.454;2023-02-24T03:47:00;2.30;;;2.30;;
26820;SDS011;37186;51.394;5.454;2023-02-24T03:50:03;2.30;;;2.30;;
26820;SDS011;37186;51.394;5.454;2023-02-24T03:56:54;2.40;;;2.40;;
26820;SDS011;37186;51.394;5.454;2023-02-24T04:00:10;2.40;;;2.40;;
26820;SDS011;37186;51.394;5.454;2023-02-24T04:03:25;2.40;;;2.40;;
26820;SDS011;37186;51.394;5.454;2023-02-24T04:09:46;2.60;;;2.60;;
26820;SDS011;37186;51.394;5.454;2023-02-24T04:13:12;2.60;;;2.60;;
26820;SDS011;37186;51.394;5.454;2023-02-24T04:16:21;2.40;;;2.40;;
26820;SDS011;37186;51.394;5.454;2023-02-24T04:19:30;2.60;;;2.60;;
26820;SDS011;37186;51.394;5.454;2023-02-24T04:22:37;2.40;;;2.40;;
26820;SDS011;37186;51.394;5.454;2023-02-24T04:25:41;2.53;;;2.53;;
26820;SDS011;37186;51.394;5.454;2023-02-24T04:28:44;2.50;;;2.50;;
26820;SDS011;37186;51.394;5.454;2023-02-24T04:31:49;2.43;;;2.43;;
26820;SDS011;37186;51.394;5.454;2023-02-24T04:35:00;2.40;;;2.40;;
26820;SDS011;37186;51.394;5.454;2023-02-24T04:38:03;2.30;;;2.30;;
26820;SDS011;37186;51.394;5.454;2023-02-24T04:41:04;2.50;;;2.50;;
26820;SDS011;37186;51.394;5.454;2023-02-24T04:44:04;2.50;;;2.50;;
26820;SDS011;37186;51.394;5.454;2023-02-24T04:47:05;2.50;;;2.50;;
26820;SDS011;37186;51.394;5.454;2023-02-24T04:50:06;2.50;;;2.50;;
26820;SDS011;37186;51.394;5.454;2023-02-24T04:53:12;2.43;;;2.43;;
26820;SDS011;37186;51.394;5.454;2023-02-24T04:56:14;2.40;;;2.40;;
26820;SDS011;37186;51.394;5.454;2023-02-24T04:59:19;2.40;;;2.40;;
26820;SDS011;37186;51.394;5.454;2023-02-24T05:02:20;2.30;;;2.30;;
26820;SDS011;37186;51.394;5.454;2023-02-24T05:05:21;2.30;;;2.30;;
26820;SDS011;37186;51.394;5.454;2023-02-24T05:08:25;2.40;;;2.40;;
26820;SDS011;37186;51.394;5.454;2023-02-24T05:11:26;2.40;;;2.40;;
26820;SDS011;37186;51.394;5.454;2023-02-24T05:14:33;2.40;;;2.40;;
26820;SDS011;37186;51.394;5.454;2023-02-24T05:17:34;2.30;;;2.30;;
26820;SDS011;37186;51.394;5.454;2023-02-24T05:20:40;2.27;;;2.27;;
26820;SDS011;37186;51.394;5.454;2023-02-24T05:24:01;2.30;;;2.30;;
26820;SDS011;37186;51.394;5.454;2023-02-24T05:27:10;2.37;;;2.37;;
26820;SDS011;37186;51.394;5.454;2023-02-24T05:30:10;2.40;;;2.40;;
26820;SDS011;37186;51.394;5.454;2023-02-24T05:33:13;2.50;;;2.50;;
26820;SDS011;37186;51.394;5.454;2023-02-24T05:36:14;2.60;;;2.60;;
26820;SDS011;37186;51.394;5.454;2023-02-24T05:39:16;2.50;;;2.50;;
26820;SDS011;37186;51.394;5.454;2023-02-24T05:42:18;2.40;;;2.40;;
26820;SDS011;37186;51.394;5.454;2023-02-24T05:45:19;2.70;;;2.63;;
26820;SDS011;37186;51.394;5.454;2023-02-24T05:48:19;2.40;;;2.40;;
26820;SDS011;37186;51.394;5.454;2023-02-24T05:51:20;2.40;;;2.40;;
26820;SDS011;37186;51.394;5.454;2023-02-24T05:54:27;2.43;;;2.43;;
26820;SDS011;37186;51.394;5.454;2023-02-24T05:57:29;2.40;;;2.40;;
26820;SDS011;37186;51.394;5.454;2023-02-24T06:00:34;2.30;;;2.30;;
26820;SDS011;37186;51.394;5.454;2023-02-24T06:03:38;2.43;;;2.43;;
26820;SDS011;37186;51.394;5.454;2023-02-24T06:06:40;2.40;;;2.40;;
26820;SDS011;37186;51.394;5.454;2023-02-24T06:09:41;2.40;;;2.40;;
26820;SDS011;37186;51.394;5.454;2023-02-24T06:12:41;2.40;;;2.40;;
26820;SDS011;37186;51.394;5.454;2023-02-24T06:15:42;2.40;;;2.40;;
26820;SDS011;37186;51.394;5.454;2023-02-24T06:18:49;2.40;;;2.40;;
26820;SDS011;37186;51.394;5.454;2023-02-24T06:21:49;2.40;;;2.40;;
26820;SDS011;37186;51.394;5.454;2023-02-24T06:24:52;2.30;;;2.30;;
26820;SDS011;37186;51.394;5.454;2023-02-24T06:27:53;2.30;;;2.30;;
26820;SDS011;37186;51.394;5.454;2023-02-24T06:30:55;2.30;;;2.30;;
26820;SDS011;37186;51.394;5.454;2023-02-24T06:33:56;2.30;;;2.30;;
26820;SDS011;37186;51.394;5.454;2023-02-24T06:36:56;2.43;;;2.43;;
26820;SDS011;37186;51.394;5.454;2023-02-24T06:39:57;2.30;;;2.30;;
26820;SDS011;37186;51.394;5.454;2023-02-24T06:42:58;2.50;;;2.50;;
26820;SDS011;37186;51.394;5.454;2023-02-24T06:46:00;2.47;;;2.47;;
26820;SDS011;37186;51.394;5.454;2023-02-24T06:49:01;2.37;;;2.37;;
26820;SDS011;37186;51.394;5.454;2023-02-24T06:52:02;2.40;;;2.40;;
26820;SDS011;37186;51.394;5.454;2023-02-24T06:55:03;2.33;;;2.33;;
26820;SDS011;37186;51.394;5.454;2023-02-24T06:58:04;2.40;;;2.40;;
26820;SDS011;37186;51.394;5.454;2023-02-24T07:01:04;2.20;;;2.20;;
26820;SDS011;37186;51.394;5.454;2023-02-24T07:04:12;2.30;;;2.30;;
26820;SDS011;37186;51.394;5.454;2023-02-24T07:07:14;2.30;;;2.30;;
26820;SDS011;37186;51.394;5.454;2023-02-24T07:10:16;2.20;;;2.20;;
26820;SDS011;37186;51.394;5.454;2023-02-24T07:13:16;2.50;;;2.50;;
26820;SDS011;37186;51.394;5.454;2023-02-24T07:16:18;2.30;;;2.30;;
26820;SDS011;37186;51.394;5.454;2023-02-24T07:19:25;2.40;;;2.40;;
26820;SDS011;37186;51.394;5.454;2023-02-24T07:22:31;2.30;;;2.30;;
26820;SDS011;37186;51.394;5.454;2023-02-24T07:25:32;2.20;;;2.20;;
26820;SDS011;37186;51.394;5.454;2023-02-24T07:28:32;2.40;;;2.40;;
26820;SDS011;37186;51.394;5.454;2023-02-24T07:31:33;2.40;;;2.40;;
26820;SDS011;37186;51.394;5.454;2023-02-24T07:34:35;2.30;;;2.30;;
26820;SDS011;37186;51.394;5.454;2023-02-24T07:37:38;2.37;;;2.37;;
26820;SDS011;37186;51.394;5.454;2023-02-24T07:40:40;2.30;;;2.30;;
26820;SDS011;37186;51.394;5.454;2023-02-24T07:43:41;2.60;;;2.60;;
26820;SDS011;37186;51.394;5.454;2023-02-24T07:46:43;2.50;;;2.50;;
26820;SDS011;37186;51.394;5.454;2023-02-24T07:49:44;2.40;;;2.40;;
26820;SDS011;37186;51.394;5.454;2023-02-24T07:52:45;2.30;;;2.30;;
26820;SDS011;37186;51.394;5.454;2023-02-24T07:55:49;2.40;;;2.40;;
26820;SDS011;37186;51.394;5.454;2023-02-24T07:58:53;2.20;;;2.20;;
26820;SDS011;37186;51.394;5.454;2023-02-24T08:01:58;2.40;;;2.40;;
26820;SDS011;37186;51.394;5.454;2023-02-24T08:05:06;2.30;;;2.30;;
26820;SDS011;37186;51.394;5.454;2023-02-24T08:08:08;2.40;;;2.40;;
26820;SDS011;37186;51.394;5.454;2023-02-24T08:11:08;2.40;;;2.40;;
26820;SDS011;37186;51.394;5.454;2023-02-24T08:14:09;2.40;;;2.40;;
26820;SDS011;37186;51.394;5.454;2023-02-24T08:17:12;2.60;;;2.60;;
26820;SDS011;37186;51.394;5.454;2023-02-24T08:20:21;2.57;;;2.57;;
26820;SDS011;37186;51.394;5.454;2023-02-24T08:23:21;2.50;;;2.50;;
26820;SDS011;37186;51.394;5.454;2023-02-24T08:26:22;2.33;;;2.33;;
26820;SDS011;37186;51.394;5.454;2023-02-24T08:29:33;2.40;;;2.40;;
26820;SDS011;37186;51.394;5.454;2023-02-24T08:32:39;2.30;;;2.30;;
26820;SDS011;37186;51.394;5.454;2023-02-24T08:35:49;2.40;;;2.40;;
26820;SDS011;37186;51.394;5.454;2023-02-24T08:38:59;2.40;;;2.40;;
26820;SDS011;37186;51.394;5.454;2023-02-24T08:42:00;2.50;;;2.50;;
26820;SDS011;37186;51.394;5.454;2023-02-24T08:45:01;2.50;;;2.50;;
26820;SDS011;37186;51.394;5.454;2023-02-24T08:48:02;2.37;;;2.37;;
26820;SDS011;37186;51.394;5.454;2023-02-24T08:51:27;2.30;;;2.30;;
26820;SDS011;37186;51.394;5.454;2023-02-24T08:54:29;2.40;;;2.40;;
26820;SDS011;37186;51.394;5.454;2023-02-24T08:57:30;2.30;;;2.30;;
26820;SDS011;37186;51.394;5.454;2023-02-24T09:00:34;2.57;;;2.57;;
26820;SDS011;37186;51.394;5.454;2023-02-24T09:03:56;2.30;;;2.30;;
26820;SDS011;37186;51.394;5.454;2023-02-24T09:06:58;2.30;;;2.30;;
26820;SDS011;37186;51.394;5.454;2023-02-24T09:10:02;2.47;;;2.47;;
26820;SDS011;37186;51.394;5.454;2023-02-24T09:13:10;2.20;;;2.20;;
26820;SDS011;37186;51.394;5.454;2023-02-24T09:16:11;2.30;;;2.30;;
26820;SDS011;37186;51.394;5.454;2023-02-24T09:19:15;2.20;;;2.20;;
26820;SDS011;37186;51.394;5.454;2023-02-24T09:22:45;2.40;;;2.40;;
26820;SDS011;37186;51.394;5.454;2023-02-24T09:25:56;2.30;;;2.30;;
26820;SDS011;37186;51.394;5.454;2023-02-24T09:28:57;2.40;;;2.40;;
26820;SDS011;37186;51.394;5.454;2023-02-24T09:31:59;2.50;;;2.50;;
26820;SDS011;37186;51.394;5.454;2023-02-24T09:35:04;2.33;;;2.33;;
26820;SDS011;37186;51.394;5.454;2023-02-24T09:38:05;2.20;;;2.20;;
26820;SDS011;37186;51.394;5.454;2023-02-24T09:41:07;2.40;;;2.40;;
26820;SDS011;37186;51.394;5.454;2023-02-24T09:45:03;2.40;;;2.40;;
26820;SDS011;37186;51.394;5.454;2023-02-24T09:48:14;2.37;;;2.37;;
26820;SDS011;37186;51.394;5.454;2023-02-24T09:51:20;2.30;;;2.30;;
26820;SDS011;37186;51.394;5.454;2023-02-24T09:54:29;2.40;;;2.40;;
26820;SDS011;37186;51.394;5.454;2023-02-24T09:57:54;2.30;;;2.30;;
26820;SDS011;37186;51.394;5.454;2023-02-24T10:01:27;2.30;;;2.30;;
26820;SDS011;37186;51.394;5.454;2023-02-24T10:05:01;2.33;;;2.33;;
26820;SDS011;37186;51.394;5.454;2023-02-24T10:08:22;2.33;;;2.33;;
26820;SDS011;37186;51.394;5.454;2023-02-24T10:11:30;2.40;;;2.40;;
26820;SDS011;37186;51.394;5.454;2023-02-24T10:14:47;2.50;;;2.50;;
26820;SDS011;37186;51.394;5.454;2023-02-24T10:22:09;2.47;;;2.47;;
26820;SDS011;37186;51.394;5.454;2023-02-24T10:25:55;2.33;;;2.33;;
26820;SDS011;37186;51.394;5.454;2023-02-24T10:35:45;2.23;;;2.23;;
26820;SDS011;37186;51.394;5.454;2023-02-24T10:38:46;2.30;;;2.30;;
26820;SDS011;37186;51.394;5.454;2023-02-24T10:41:59;2.30;;;2.30;;
26820;SDS011;37186;51.394;5.454;2023-02-24T10:45:21;2.40;;;2.40;;
26820;SDS011;37186;51.394;5.454;2023-02-24T10:48:24;2.57;;;2.57;;
26820;SDS011;37186;51.394;5.454;2023-02-24T10:51:35;2.50;;;2.50;;
26820;SDS011;37186;51.394;5.454;2023-02-24T10:54:41;2.33;;;2.33;;
26820;SDS011;37186;51.394;5.454;2023-02-24T10:58:04;2.30;;;2.30;;
26820;SDS011;37186;51.394;5.454;2023-02-24T11:01:19;2.30;;;2.30;;
26820;SDS011;37186;51.394;5.454;2023-02-24T11:04:39;2.30;;;2.30;;
26820;SDS011;37186;51.394;5.454;2023-02-24T11:08:03;2.40;;;2.40;;
26820;SDS011;37186;51.394;5.454;2023-02-24T11:11:17;2.37;;;2.37;;
26820;SDS011;37186;51.394;5.454;2023-02-24T11:14:28;2.30;;;2.30;;
26820;SDS011;37186;51.394;5.454;2023-02-24T11:17:55;2.50;;;2.50;;
26820;SDS011;37186;51.394;5.454;2023-02-24T11:23:59;2.30;;;2.30;;
26820;SDS011;37186;51.394;5.454;2023-02-24T11:27:02;2.30;;;2.30;;
26820;SDS011;37186;51.394;5.454;2023-02-24T11:42:49;2.60;;;2.60;;
26820;SDS011;37186;51.394;5.454;2023-02-24T11:45:56;2.20;;;2.20;;
26820;SDS011;37186;51.394;5.454;2023-02-24T11:49:01;2.50;;;2.50;;
26820;SDS011;37186;51.394;5.454;2023-02-24T11:52:09;2.50;;;2.50;;
26820;SDS011;37186;51.394;5.454;2023-02-24T11:55:20;2.50;;;2.50;;
26820;SDS011;37186;51.394;5.454;2023-02-24T12:05:16;2.40;;;2.40;;
26820;SDS011;37186;51.394;5.454;2023-02-24T12:08:36;2.53;;;2.53;;
26820;SDS011;37186;51.394;5.454;2023-02-24T12:14:58;2.30;;;2.30;;
26820;SDS011;37186;51.394;5.454;2023-02-24T12:21:22;2.40;;;2.40;;
26820;SDS011;37186;51.394;5.454;2023-02-24T12:24:34;2.30;;;2.30;;
26820;SDS011;37186;51.394;5.454;2023-02-24T12:28:17;2.30;;;2.30;;
26820;SDS011;37186;51.394;5.454;2023-02-24T12:38:07;2.47;;;2.47;;
26820;SDS011;37186;51.394;5.454;2023-02-24T12:44:34;2.27;;;2.27;;
26820;SDS011;37186;51.394;5.454;2023-02-24T12:47:53;2.30;;;2.30;;
26820;SDS011;37186;51.394;5.454;2023-02-24T12:51:28;2.40;;;2.40;;
26820;SDS011;37186;51.394;5.454;2023-02-24T13:08:37;2.30;;;2.30;;
26820;SDS011;37186;51.394;5.454;2023-02-24T13:11:28;2.30;;;2.30;;
26820;SDS011;37186;51.394;5.454;2023-02-24T13:14:36;2.40;;;2.40;;
26820;SDS011;37186;51.394;5.454;2023-02-24T13:17:45;2.37;;;2.37;;
26820;SDS011;37186;51.394;5.454;2023-02-24T13:20:47;2.40;;;2.40;;
26820;SDS011;37186;51.394;5.454;2023-02-24T13:24:15;2.40;;;2.40;;
26820;SDS011;37186;51.394;5.454;2023-02-24T13:27:38;2.30;;;2.30;;
26820;SDS011;37186;51.394;5.454;2023-02-24T13:30:41;2.40;;;2.40;;
26820;SDS011;37186;51.394;5.454;2023-02-24T13:33:44;2.60;;;2.60;;
26820;SDS011;37186;51.394;5.454;2023-02-24T13:36:45;2.50;;;2.50;;
26820;SDS011;37186;51.394;5.454;2023-02-24T13:39:47;2.40;;;2.40;;
26820;SDS011;37186;51.394;5.454;2023-02-24T13:46:01;2.43;;;2.43;;
26820;SDS011;37186;51.394;5.454;2023-02-24T14:02:17;2.40;;;2.40;;
26820;SDS011;37186;51.394;5.454;2023-02-24T14:08:37;2.40;;;2.40;;
26820;SDS011;37186;51.394;5.454;2023-02-24T14:11:44;2.50;;;2.50;;
26820;SDS011;37186;51.394;5.454;2023-02-24T14:14:45;2.33;;;2.33;;
26820;SDS011;37186;51.394;5.454;2023-02-24T14:17:58;2.33;;;2.33;;
26820;SDS011;37186;51.394;5.454;2023-02-24T14:21:00;2.37;;;2.37;;
26820;SDS011;37186;51.394;5.454;2023-02-24T14:24:01;2.23;;;2.23;;
26820;SDS011;37186;51.394;5.454;2023-02-24T14:27:13;2.40;;;2.40;;
26820;SDS011;37186;51.394;5.454;2023-02-24T14:33:39;2.20;;;2.20;;
26820;SDS011;37186;51.394;5.454;2023-02-24T14:36:42;2.40;;;2.40;;
26820;SDS011;37186;51.394;5.454;2023-02-24T14:39:48;2.20;;;2.20;;
26820;SDS011;37186;51.394;5.454;2023-02-24T14:42:52;2.30;;;2.30;;
26820;SDS011;37186;51.394;5.454;2023-02-24T14:45:54;2.30;;;2.30;;
26820;SDS011;37186;51.394;5.454;2023-02-24T14:48:56;2.20;;;2.20;;
26820;SDS011;37186;51.394;5.454;2023-02-24T14:52:02;2.30;;;2.30;;
26820;SDS011;37186;51.394;5.454;2023-02-24T14:55:12;2.20;;;2.20;;
26820;SDS011;37186;51.394;5.454;2023-02-24T14:58:22;2.50;;;2.50;;
26820;SDS011;37186;51.394;5.454;2023-02-24T15:01:32;2.40;;;2.40;;
26820;SDS011;37186;51.394;5.454;2023-02-24T15:04:38;2.20;;;2.20;;
26820;SDS011;37186;51.394;5.454;2023-02-24T15:07:43;2.07;;;2.07;;
26820;SDS011;37186;51.394;5.454;2023-02-24T15:10:44;2.50;;;2.50;;
26820;SDS011;37186;51.394;5.454;2023-02-24T15:13:52;2.40;;;2.40;;
26820;SDS011;37186;51.394;5.454;2023-02-24T15:17:02;2.40;;;2.40;;
26820;SDS011;37186;51.394;5.454;2023-02-24T15:20:25;2.50;;;2.50;;
26820;SDS011;37186;51.394;5.454;2023-02-24T15:23:32;2.37;;;2.37;;
26820;SDS011;37186;51.394;5.454;2023-02-24T15:26:35;2.50;;;2.50;;
26820;SDS011;37186;51.394;5.454;2023-02-24T15:29:35;2.50;;;2.50;;
26820;SDS011;37186;51.394;5.454;2023-02-24T15:32:37;2.50;;;2.50;;
26820;SDS011;37186;51.394;5.454;2023-02-24T15:35:38;2.50;;;2.50;;
26820;SDS011;37186;51.394;5.454;2023-02-24T15:38:50;2.40;;;2.40;;
26820;SDS011;37186;51.394;5.454;2023-02-24T15:42:04;2.43;;;2.43;;
26820;SDS011;37186;51.394;5.454;2023-02-24T15:45:31;2.60;;;2.60;;
26820;SDS011;37186;51.394;5.454;2023-02-24T15:48:34;2.53;;;2.53;;
26820;SDS011;37186;51.394;5.454;2023-02-24T15:51:43;2.73;;;2.70;;
26820;SDS011;37186;51.394;5.454;2023-02-24T15:54:45;2.70;;;2.70;;
26820;SDS011;37186;51.394;5.454;2023-02-24T15:57:46;3.00;;;2.90;;
26820;SDS011;37186;51.394;5.454;2023-02-24T16:00:55;2.90;;;2.80;;
26820;SDS011;37186;51.394;5.454;2023-02-24T16:03:55;2.90;;;2.80;;
26820;SDS011;37186;51.394;5.454;2023-02-24T16:06:56;2.70;;;2.70;;
26820;SDS011;37186;51.394;5.454;2023-02-24T16:09:57;2.50;;;2.50;;
26820;SDS011;37186;51.394;5.454;2023-02-24T16:13:02;2.30;;;2.30;;
26820;SDS011;37186;51.394;5.454;2023-02-24T16:16:04;2.50;;;2.50;;
26820;SDS011;37186;51.394;5.454;2023-02-24T16:19:06;2.50;;;2.50;;
26820;SDS011;37186;51.394;5.454;2023-02-24T16:22:09;2.60;;;2.60;;
26820;SDS011;37186;51.394;5.454;2023-02-24T16:25:15;2.77;;;2.67;;
26820;SDS011;37186;51.394;5.454;2023-02-24T16:28:17;2.60;;;2.60;;
26820;SDS011;37186;51.394;5.454;2023-02-24T16:31:19;2.57;;;2.57;;
26820;SDS011;37186;51.394;5.454;2023-02-24T16:34:20;2.53;;;2.53;;
26820;SDS011;37186;51.394;5.454;2023-02-24T16:37:22;2.50;;;2.50;;
26820;SDS011;37186;51.394;5.454;2023-02-24T16:40:27;2.40;;;2.40;;
26820;SDS011;37186;51.394;5.454;2023-02-24T16:43:29;2.40;;;2.40;;
26820;SDS011;37186;51.394;5.454;2023-02-24T16:46:34;2.40;;;2.40;;
26820;SDS011;37186;51.394;5.454;2023-02-24T16:49:40;2.30;;;2.30;;
26820;SDS011;37186;51.394;5.454;2023-02-24T16:52:40;2.40;;;2.40;;
26820;SDS011;37186;51.394;5.454;2023-02-24T16:55:41;2.23;;;2.23;;
26820;SDS011;37186;51.394;5.454;2023-02-24T16:58:42;2.40;;;2.40;;
26820;SDS011;37186;51.394;5.454;2023-02-24T17:01:43;2.30;;;2.30;;
26820;SDS011;37186;51.394;5.454;2023-02-24T17:04:44;2.30;;;2.30;;
26820;SDS011;37186;51.394;5.454;2023-02-24T17:07:48;2.40;;;2.40;;
26820;SDS011;37186;51.394;5.454;2023-02-24T17:10:50;2.40;;;2.40;;
26820;SDS011;37186;51.394;5.454;2023-02-24T17:13:51;2.20;;;2.20;;
26820;SDS011;37186;51.394;5.454;2023-02-24T17:16:52;2.30;;;2.30;;
26820;SDS011;37186;51.394;5.454;2023-02-24T17:19:52;2.30;;;2.30;;
26820;SDS011;37186;51.394;5.454;2023-02-24T17:22:53;2.13;;;2.13;;
26820;SDS011;37186;51.394;5.454;2023-02-24T17:25:55;2.33;;;2.33;;
26820;SDS011;37186;51.394;5.454;2023-02-24T17:28:59;2.30;;;2.30;;
26820;SDS011;37186;51.394;5.454;2023-02-24T17:31:59;2.30;;;2.30;;
26820;SDS011;37186;51.394;5.454;2023-02-24T17:35:00;2.30;;;2.30;;
26820;SDS011;37186;51.394;5.454;2023-02-24T17:38:00;2.13;;;2.13;;
26820;SDS011;37186;51.394;5.454;2023-02-24T17:41:01;2.20;;;2.20;;
26820;SDS011;37186;51.394;5.454;2023-02-24T17:44:02;2.40;;;2.40;;
26820;SDS011;37186;51.394;5.454;2023-02-24T17:47:02;2.37;;;2.37;;
26820;SDS011;37186;51.394;5.454;2023-02-24T17:50:05;2.30;;;2.30;;
26820;SDS011;37186;51.394;5.454;2023-02-24T17:53:07;2.10;;;2.10;;
26820;SDS011;37186;51.394;5.454;2023-02-24T17:56:08;2.30;;;2.30;;
26820;SDS011;37186;51.394;5.454;2023-02-24T17:59:09;2.20;;;2.20;;
26820;SDS011;37186;51.394;5.454;2023-02-24T18:02:10;2.20;;;2.20;;
26820;SDS011;37186;51.394;5.454;2023-02-24T18:05:12;2.40;;;2.40;;
26820;SDS011;37186;51.394;5.454;2023-02-24T18:08:12;2.40;;;2.40;;
26820;SDS011;37186;51.394;5.454;2023-02-24T18:11:14;2.40;;;2.40;;
26820;SDS011;37186;51.394;5.454;2023-02-24T18:14:16;2.20;;;2.20;;
26820;SDS011;37186;51.394;5.454;2023-02-24T18:17:17;2.47;;;2.47;;
26820;SDS011;37186;51.394;5.454;2023-02-24T18:20:18;2.30;;;2.30;;
26820;SDS011;37186;51.394;5.454;2023-02-24T18:23:19;2.47;;;2.47;;
26820;SDS011;37186;51.394;5.454;2023-02-24T18:26:19;2.40;;;2.40;;
26820;SDS011;37186;51.394;5.454;2023-02-24T18:29:21;2.40;;;2.40;;
26820;SDS011;37186;51.394;5.454;2023-02-24T18:32:22;2.40;;;2.40;;
26820;SDS011;37186;51.394;5.454;2023-02-24T18:35:23;2.40;;;2.40;;
26820;SDS011;37186;51.394;5.454;2023-02-24T18:38:24;2.60;;;2.60;;
26820;SDS011;37186;51.394;5.454;2023-02-24T18:41:24;2.30;;;2.30;;
26820;SDS011;37186;51.394;5.454;2023-02-24T18:44:25;2.40;;;2.40;;
26820;SDS011;37186;51.394;5.454;2023-02-24T18:47:26;2.40;;;2.40;;
26820;SDS011;37186;51.394;5.454;2023-02-24T18:50:26;2.20;;;2.20;;
26820;SDS011;37186;51.394;5.454;2023-02-24T18:53:28;2.40;;;2.40;;
26820;SDS011;37186;51.394;5.454;2023-02-24T18:56:30;2.30;;;2.30;;
26820;SDS011;37186;51.394;5.454;2023-02-24T18:59:33;2.40;;;2.40;;
26820;SDS011;37186;51.394;5.454;2023-02-24T19:02:33;2.30;;;2.30;;
26820;SDS011;37186;51.394;5.454;2023-02-24T19:05:34;2.30;;;2.30;;
26820;SDS011;37186;51.394;5.454;2023-02-24T19:08:34;2.40;;;2.40;;
26820;SDS011;37186;51.394;5.454;2023-02-24T19:11:35;2.50;;;2.50;;
26820;SDS011;37186;51.394;5.454;2023-02-24T19:14:38;2.30;;;2.30;;
26820;SDS011;37186;51.394;5.454;2023-02-24T19:17:38;2.30;;;2.30;;
26820;SDS011;37186;51.394;5.454;2023-02-24T19:20:42;2.40;;;2.40;;
26820;SDS011;37186;51.394;5.454;2023-02-24T19:23:43;2.50;;;2.50;;
26820;SDS011;37186;51.394;5.454;2023-02-24T19:26:43;2.50;;;2.50;;
26820;SDS011;37186;51.394;5.454;2023-02-24T19:29:46;2.40;;;2.40;;
26820;SDS011;37186;51.394;5.454;2023-02-24T19:32:49;2.40;;;2.40;;
26820;SDS011;37186;51.394;5.454;2023-02-24T19:35:50;2.40;;;2.40;;
26820;SDS011;37186;51.394;5.454;2023-02-24T19:38:52;2.40;;;2.40;;
26820;SDS011;37186;51.394;5.454;2023-02-24T19:41:53;2.40;;;2.40;;
26820;SDS011;37186;51.394;5.454;2023-02-24T19:44:55;2.40;;;2.40;;
26820;SDS011;37186;51.394;5.454;2023-02-24T19:47:55;2.50;;;2.50;;
26820;SDS011;37186;51.394;5.454;2023-02-24T19:50:56;2.40;;;2.40;;
26820;SDS011;37186;51.394;5.454;2023-02-24T19:53:57;2.30;;;2.30;;
26820;SDS011;37186;51.394;5.454;2023-02-24T19:56:59;2.20;;;2.20;;
26820;SDS011;37186;51.394;5.454;2023-02-24T19:59:59;2.37;;;2.37;;
26820;SDS011;37186;51.394;5.454;2023-02-24T20:03:00;2.30;;;2.30;;
26820;SDS011;37186;51.394;5.454;2023-02-24T20:06:01;2.30;;;2.30;;
26820;SDS011;37186;51.394;5.454;2023-02-24T20:09:06;2.40;;;2.40;;
26820;SDS011;37186;51.394;5.454;2023-02-24T20:12:08;2.30;;;2.30;;
26820;SDS011;37186;51.394;5.454;2023-02-24T20:15:09;2.40;;;2.40;;
26820;SDS011;37186;51.394;5.454;2023-02-24T20:18:14;2.30;;;2.30;;
26820;SDS011;37186;51.394;5.454;2023-02-24T20:21:14;2.30;;;2.30;;
26820;SDS011;37186;51.394;5.454;2023-02-24T20:24:16;2.30;;;2.30;;
26820;SDS011;37186;51.394;5.454;2023-02-24T20:27:17;2.30;;;2.30;;
26820;SDS011;37186;51.394;5.454;2023-02-24T20:30:18;2.27;;;2.27;;
26820;SDS011;37186;51.394;5.454;2023-02-24T20:33:18;2.20;;;2.20;;
26820;SDS011;37186;51.394;5.454;2023-02-24T20:36:23;2.43;;;2.43;;
26820;SDS011;37186;51.394;5.454;2023-02-24T20:39:25;2.20;;;2.20;;
26820;SDS011;37186;51.394;5.454;2023-02-24T20:42:26;2.40;;;2.40;;